createdAt,value
2018-09-24T00:00:29.220Z,22.38
2018-09-24T00:01:29.301Z,22.36
2018-09-24T00:02:29.581Z,22.41
2018-09-24T00:03:29.302Z,22.36
2018-09-24T00:04:29.393Z,22.41
2018-09-24T00:05:29.364Z,22.36
2018-09-24T00:06:29.448Z,22.46
2018-09-24T00:08:29.509Z,22.42
2018-09-24T00:09:29.792Z,22.38
2018-09-24T00:10:29.524Z,22.44
2018-09-24T00:11:29.546Z,22.35
2018-09-24T00:12:29.572Z,22.38
2018-09-24T00:13:29.660Z,22.35
2018-09-24T00:14:29.688Z,22.42
2018-09-24T00:15:29.968Z,22.42
2018-09-24T00:16:29.701Z,22.35
2018-09-24T00:17:29.778Z,22.38
2018-09-24T00:18:29.811Z,22.39
2018-09-24T00:19:29.854Z,22.39
2018-09-24T00:20:29.877Z,22.42
2018-09-24T00:21:29.847Z,22.39
2018-09-24T00:22:30.173Z,22.42
2018-09-24T00:23:29.957Z,22.41
2018-09-24T00:24:29.988Z,22.41
2018-09-24T00:25:29.971Z,22.41
2018-09-24T00:26:30.049Z,22.38
2018-09-24T00:27:30.023Z,22.41
2018-09-24T00:28:30.064Z,22.36
2018-09-24T00:29:30.441Z,22.42
2018-09-24T00:30:30.169Z,22.39
2018-09-24T00:31:30.151Z,22.39
2018-09-24T00:32:30.184Z,22.36
2018-09-24T00:33:30.209Z,22.44
2018-09-24T00:34:30.284Z,22.42
2018-09-24T00:35:30.320Z,22.33
2018-09-24T00:36:30.596Z,22.42
2018-09-24T00:37:30.383Z,22.44
2018-09-24T00:38:30.408Z,22.42
2018-09-24T00:39:30.388Z,22.39
2018-09-24T00:40:30.464Z,22.44
2018-09-24T00:41:30.452Z,22.41
2018-09-24T00:42:30.523Z,22.39
2018-09-24T00:43:30.886Z,22.33
2018-09-24T00:44:30.585Z,22.31
2018-09-24T00:45:30.616Z,22.41
2018-09-24T00:46:30.648Z,22.33
2018-09-24T00:47:30.675Z,22.38
2018-09-24T00:48:30.658Z,22.42
2018-09-24T00:49:30.687Z,22.29
2018-09-24T00:50:31.023Z,22.24
2018-09-24T00:51:30.801Z,22.30
2018-09-24T00:52:30.780Z,22.24
2018-09-24T00:53:30.804Z,22.27
2018-09-24T00:54:30.885Z,22.29
2018-09-24T00:55:30.923Z,22.29
2018-09-24T00:56:30.950Z,22.23
2018-09-24T00:57:31.242Z,22.23
2018-09-24T00:58:30.963Z,22.30
2018-09-24T00:59:30.993Z,22.29
2018-09-24T01:00:31.024Z,22.26
2018-09-24T01:01:31.101Z,22.30
2018-09-24T01:02:31.123Z,22.33
2018-09-24T01:03:31.156Z,22.33
2018-09-24T01:04:31.432Z,22.29
2018-09-24T01:05:31.163Z,22.35
2018-09-24T01:06:31.243Z,22.31
2018-09-24T01:07:31.279Z,22.26
2018-09-24T01:08:31.256Z,22.26
2018-09-24T01:09:31.335Z,22.26
2018-09-24T01:10:31.371Z,22.21
2018-09-24T01:11:31.644Z,22.21
2018-09-24T01:12:31.372Z,22.24
2018-09-24T01:13:31.452Z,22.21
2018-09-24T01:14:31.483Z,22.24
2018-09-24T01:15:31.465Z,22.26
2018-09-24T01:16:31.549Z,22.21
2018-09-24T01:17:31.524Z,22.20
2018-09-24T01:18:31.862Z,22.24
2018-09-24T01:19:31.632Z,22.20
2018-09-24T01:20:31.666Z,22.15
2018-09-24T01:21:31.649Z,22.23
2018-09-24T01:22:31.725Z,22.23
2018-09-24T01:23:31.754Z,22.15
2018-09-24T01:24:31.739Z,22.14
2018-09-24T01:26:32.108Z,22.09
2018-09-24T01:27:31.876Z,22.20
2018-09-24T01:28:31.908Z,22.14
2018-09-24T01:29:31.891Z,22.14
2018-09-24T01:30:31.970Z,22.12
2018-09-24T01:31:31.954Z,22.12
2018-09-24T01:32:31.984Z,22.06
2018-09-24T01:33:32.353Z,22.12
2018-09-24T01:34:32.097Z,22.14
2018-09-24T01:35:32.135Z,22.08
2018-09-24T01:36:32.098Z,22.17
2018-09-24T01:37:32.144Z,22.05
2018-09-24T01:38:32.181Z,22.14
2018-09-24T01:39:32.182Z,22.05
2018-09-24T01:40:32.567Z,22.09
2018-09-24T01:41:32.293Z,22.09
2018-09-24T01:42:32.328Z,22.12
2018-09-24T01:43:32.302Z,22.06
2018-09-24T01:44:32.388Z,22.08
2018-09-24T01:45:32.362Z,22.04
2018-09-24T01:46:32.445Z,22.08
2018-09-24T01:47:32.730Z,22.04
2018-09-24T01:48:32.479Z,22.11
2018-09-24T01:49:32.491Z,22.08
2018-09-24T01:50:32.521Z,22.01
2018-09-24T01:51:32.600Z,22.05
2018-09-24T01:52:32.574Z,22.04
2018-09-24T01:53:32.655Z,21.98
2018-09-24T01:54:32.930Z,22.02
2018-09-24T01:55:32.710Z,21.98
2018-09-24T01:56:32.739Z,22.01
2018-09-24T01:57:32.719Z,22.04
2018-09-24T01:58:32.800Z,22.04
2018-09-24T01:59:32.798Z,21.99
2018-09-24T02:00:32.865Z,22.08
2018-09-24T02:01:33.153Z,22.06
2018-09-24T02:03:32.900Z,22.05
2018-09-24T02:04:32.935Z,22.02
2018-09-24T02:05:32.957Z,22.04
2018-09-24T02:06:33.040Z,22.05
2018-09-24T02:07:33.075Z,22.09
2018-09-24T02:08:33.352Z,22.05
2018-09-24T02:09:33.138Z,21.99
2018-09-24T02:10:33.158Z,22.05
2018-09-24T02:11:33.141Z,22.05
2018-09-24T02:12:33.220Z,21.98
2018-09-24T02:13:33.249Z,21.98
2018-09-24T02:14:33.530Z,22.02
2018-09-24T02:15:33.308Z,22.04
2018-09-24T02:16:33.344Z,22.04
2018-09-24T02:17:33.327Z,21.99
2018-09-24T02:18:33.348Z,21.99
2018-09-24T02:19:33.426Z,22.01
2018-09-24T02:20:33.708Z,22.02
2018-09-24T02:21:33.444Z,21.99
2018-09-24T02:22:33.477Z,22.05
2018-09-24T02:23:33.563Z,22.06
2018-09-24T02:24:33.529Z,22.01
2018-09-24T02:25:33.555Z,21.99
2018-09-24T02:26:33.892Z,21.98
2018-09-24T02:27:33.671Z,22.04
2018-09-24T02:28:33.695Z,21.99
2018-09-24T02:29:33.681Z,22.01
2018-09-24T02:30:33.759Z,22.06
2018-09-24T02:31:33.789Z,21.96
2018-09-24T02:32:33.784Z,22.01
2018-09-24T02:33:34.096Z,21.98
2018-09-24T02:34:33.835Z,22.01
2018-09-24T02:35:33.862Z,21.94
2018-09-24T02:37:33.915Z,22.01
2018-09-24T02:38:34.005Z,21.96
2018-09-24T02:39:34.040Z,21.91
2018-09-24T02:40:34.303Z,21.91
2018-09-24T02:41:34.032Z,21.89
2018-09-24T02:42:34.123Z,21.96
2018-09-24T02:43:34.101Z,21.98
2018-09-24T02:44:34.133Z,21.96
2018-09-24T02:45:34.206Z,21.90
2018-09-24T02:46:34.187Z,21.89
2018-09-24T02:47:34.522Z,21.91
2018-09-24T02:48:34.292Z,21.94
2018-09-24T02:49:34.278Z,21.90
2018-09-24T02:50:34.353Z,21.89
2018-09-24T02:51:34.392Z,21.93
2018-09-24T02:52:34.423Z,21.91
2018-09-24T02:53:34.448Z,21.96
2018-09-24T02:54:34.738Z,21.90
2018-09-24T02:55:34.454Z,21.90
2018-09-24T02:56:34.530Z,21.91
2018-09-24T02:57:34.574Z,21.90
2018-09-24T02:58:34.596Z,21.94
2018-09-24T02:59:34.576Z,21.93
2018-09-24T03:00:34.600Z,21.98
2018-09-24T03:01:34.930Z,21.90
2018-09-24T03:02:34.709Z,22.04
2018-09-24T03:03:34.745Z,21.96
2018-09-24T03:06:34.827Z,21.93
2018-09-24T03:07:34.858Z,21.96
2018-09-24T03:08:35.138Z,21.90
2018-09-24T03:09:34.920Z,21.94
2018-09-24T03:10:34.903Z,21.90
2018-09-24T03:11:34.932Z,21.99
2018-09-24T03:12:34.956Z,21.93
2018-09-24T03:13:35.046Z,21.85
2018-09-24T03:14:35.084Z,21.90
2018-09-24T03:15:35.354Z,21.90
2018-09-24T03:16:35.082Z,21.93
2018-09-24T03:17:35.120Z,21.96
2018-09-24T03:18:35.189Z,21.96
2018-09-24T03:19:35.167Z,21.83
2018-09-24T03:20:35.246Z,21.83
2018-09-24T03:21:35.225Z,21.89
2018-09-24T03:22:35.616Z,21.83
2018-09-24T03:23:35.357Z,21.86
2018-09-24T03:24:35.317Z,21.83
2018-09-24T03:25:35.351Z,21.99
2018-09-24T03:26:35.436Z,21.91
2018-09-24T03:27:35.410Z,21.86
2018-09-24T03:28:35.484Z,21.89
2018-09-24T03:29:35.770Z,21.96
2018-09-24T03:30:35.555Z,21.83
2018-09-24T03:31:35.579Z,21.85
2018-09-24T03:32:35.607Z,21.94
2018-09-24T03:33:35.637Z,21.96
2018-09-24T03:34:35.662Z,21.83
2018-09-24T03:35:35.658Z,21.85
2018-09-24T03:36:35.983Z,21.93
2018-09-24T03:37:35.757Z,21.93
2018-09-24T03:38:35.738Z,21.93
2018-09-24T03:39:35.870Z,21.93
2018-09-24T03:40:35.795Z,21.90
2018-09-24T03:41:35.891Z,21.83
2018-09-24T03:42:35.912Z,21.85
2018-09-24T03:43:36.180Z,21.82
2018-09-24T03:44:35.970Z,21.79
2018-09-24T03:45:35.943Z,21.90
2018-09-24T03:46:36.021Z,21.86
2018-09-24T03:47:36.001Z,21.89
2018-09-24T03:48:36.077Z,21.82
2018-09-24T03:49:36.072Z,21.86
2018-09-24T03:50:36.395Z,21.82
2018-09-24T03:51:36.173Z,21.77
2018-09-24T03:52:36.169Z,21.79
2018-09-24T03:53:36.194Z,21.77
2018-09-24T03:54:36.277Z,21.82
2018-09-24T03:55:36.291Z,21.83
2018-09-24T03:56:36.322Z,21.77
2018-09-24T03:57:36.601Z,21.85
2018-09-24T03:58:36.385Z,21.85
2018-09-24T03:59:36.360Z,21.81
2018-09-24T04:00:36.443Z,21.86
2018-09-24T04:01:36.468Z,21.89
2018-09-24T04:02:36.498Z,21.77
2018-09-24T04:03:36.529Z,21.79
2018-09-24T04:04:36.827Z,21.81
2018-09-24T04:05:36.590Z,21.79
2018-09-24T04:06:36.619Z,21.81
2018-09-24T04:07:36.649Z,21.85
2018-09-24T04:08:36.626Z,21.86
2018-09-24T04:12:36.793Z,21.86
2018-09-24T04:13:37.074Z,21.79
2018-09-24T04:14:36.863Z,21.75
2018-09-24T04:15:36.830Z,21.85
2018-09-24T04:16:36.919Z,21.77
2018-09-24T04:17:36.896Z,21.67
2018-09-24T04:18:36.981Z,21.79
2018-09-24T04:19:37.065Z,21.81
2018-09-24T04:20:37.283Z,21.82
2018-09-24T04:21:37.015Z,21.67
2018-09-24T04:22:37.096Z,21.74
2018-09-24T04:23:37.067Z,21.83
2018-09-24T04:24:37.148Z,21.71
2018-09-24T04:25:37.127Z,21.77
2018-09-24T04:26:37.208Z,21.77
2018-09-24T04:27:37.848Z,21.74
2018-09-24T04:28:37.223Z,21.70
2018-09-24T04:29:37.312Z,21.68
2018-09-24T04:30:37.338Z,21.73
2018-09-24T04:31:37.306Z,21.79
2018-09-24T04:32:37.341Z,21.77
2018-09-24T04:33:37.373Z,21.73
2018-09-24T04:34:37.698Z,21.77
2018-09-24T04:35:37.485Z,21.71
2018-09-24T04:36:37.455Z,21.75
2018-09-24T04:37:37.484Z,21.71
2018-09-24T04:38:37.534Z,21.71
2018-09-24T04:39:37.650Z,21.71
2018-09-24T04:40:37.646Z,21.74
2018-09-24T04:41:37.908Z,21.74
2018-09-24T04:42:37.699Z,21.75
2018-09-24T04:43:37.674Z,21.70
2018-09-24T04:44:37.742Z,21.70
2018-09-24T04:45:37.812Z,21.68
2018-09-24T04:46:37.818Z,21.70
2018-09-24T04:47:37.794Z,21.74
2018-09-24T04:48:38.117Z,21.75
2018-09-24T04:49:37.844Z,21.68
2018-09-24T04:50:37.920Z,21.74
2018-09-24T04:51:37.951Z,21.71
2018-09-24T04:52:37.939Z,21.71
2018-09-24T04:53:37.989Z,21.68
2018-09-24T04:54:38.016Z,21.74
2018-09-24T04:55:38.317Z,21.71
2018-09-24T04:56:38.070Z,21.70
2018-09-24T04:57:38.089Z,21.73
2018-09-24T04:58:38.247Z,21.68
2018-09-24T04:59:38.187Z,21.71
2018-09-24T05:00:38.177Z,21.68
2018-09-24T05:01:38.203Z,21.67
2018-09-24T05:02:38.279Z,21.66
2018-09-24T05:03:38.255Z,21.75
2018-09-24T05:04:38.335Z,21.64
2018-09-24T05:05:38.317Z,21.63
2018-09-24T05:06:38.400Z,21.66
2018-09-24T05:07:38.682Z,21.66
2018-09-24T05:08:38.406Z,21.63
2018-09-24T05:09:38.483Z,21.73
2018-09-24T05:10:38.519Z,21.63
2018-09-24T05:11:38.499Z,21.64
2018-09-24T05:12:38.572Z,21.68
2018-09-24T05:13:38.854Z,21.70
2018-09-24T05:14:38.605Z,21.64
2018-09-24T05:15:38.661Z,21.67
2018-09-24T05:16:38.652Z,21.66
2018-09-24T05:18:38.750Z,21.67
2018-09-24T05:19:38.785Z,21.67
2018-09-24T05:20:38.764Z,21.63
2018-09-24T05:21:38.794Z,21.61
2018-09-24T05:22:38.875Z,21.64
2018-09-24T05:23:38.909Z,21.73
2018-09-24T05:24:38.937Z,21.66
2018-09-24T05:25:38.913Z,21.68
2018-09-24T05:26:39.248Z,21.70
2018-09-24T05:27:38.968Z,21.66
2018-09-24T05:28:39.050Z,21.64
2018-09-24T05:29:39.082Z,21.64
2018-09-24T05:30:39.056Z,21.67
2018-09-24T05:31:39.089Z,21.64
2018-09-24T05:32:39.122Z,21.68
2018-09-24T05:33:39.497Z,21.64
2018-09-24T05:34:39.321Z,21.70
2018-09-24T05:35:39.253Z,21.68
2018-09-24T05:36:39.232Z,21.70
2018-09-24T05:37:39.325Z,21.63
2018-09-24T05:38:39.444Z,21.61
2018-09-24T05:39:39.326Z,21.64
2018-09-24T05:40:39.706Z,21.66
2018-09-24T05:41:39.381Z,21.63
2018-09-24T05:42:39.416Z,21.61
2018-09-24T05:43:39.511Z,21.59
2018-09-24T05:44:39.469Z,21.66
2018-09-24T05:45:39.501Z,21.59
2018-09-24T05:46:39.580Z,21.68
2018-09-24T05:47:39.867Z,21.63
2018-09-24T05:48:39.642Z,21.67
2018-09-24T05:49:39.621Z,21.64
2018-09-24T05:50:39.657Z,21.64
2018-09-24T05:51:39.685Z,21.67
2018-09-24T05:52:39.761Z,21.64
2018-09-24T05:53:39.737Z,21.68
2018-09-24T05:54:40.065Z,21.73
2018-09-24T05:55:39.846Z,21.64
2018-09-24T05:56:39.831Z,21.64
2018-09-24T05:57:39.863Z,21.64
2018-09-24T05:58:39.888Z,21.61
2018-09-24T05:59:39.916Z,21.67
2018-09-24T06:00:40.010Z,21.63
2018-09-24T06:01:40.274Z,21.63
2018-09-24T06:02:40.058Z,21.74
2018-09-24T06:03:40.035Z,21.66
2018-09-24T06:04:40.157Z,21.71
2018-09-24T06:05:40.093Z,21.64
2018-09-24T06:06:40.175Z,21.64
2018-09-24T06:07:40.151Z,21.71
2018-09-24T06:08:40.492Z,21.66
2018-09-24T06:09:40.266Z,21.64
2018-09-24T06:10:40.289Z,21.61
2018-09-24T06:11:40.374Z,21.61
2018-09-24T06:12:40.303Z,21.67
2018-09-24T06:13:40.394Z,21.66
2018-09-24T06:14:40.391Z,21.71
2018-09-24T06:15:40.387Z,21.64
2018-09-24T06:16:40.476Z,21.70
2018-09-24T06:17:40.450Z,21.70
2018-09-24T06:18:40.527Z,21.63
2018-09-24T06:19:40.504Z,21.68
2018-09-24T06:20:40.587Z,21.67
2018-09-24T06:21:40.927Z,21.71
2018-09-24T06:22:40.647Z,21.73
2018-09-24T06:23:40.680Z,21.64
2018-09-24T06:24:40.665Z,21.71
2018-09-24T06:25:40.698Z,21.63
2018-09-24T06:26:40.772Z,21.70
2018-09-24T06:28:41.130Z,21.68
2018-09-24T06:29:40.802Z,21.68
2018-09-24T06:30:40.899Z,21.68
2018-09-24T06:31:40.864Z,21.71
2018-09-24T06:32:40.896Z,21.70
2018-09-24T06:33:40.990Z,21.70
2018-09-24T06:34:41.020Z,21.70
2018-09-24T06:35:41.056Z,21.71
2018-09-24T06:36:41.014Z,21.71
2018-09-24T06:37:41.040Z,21.71
2018-09-24T06:38:41.126Z,21.73
2018-09-24T06:39:41.164Z,21.74
2018-09-24T06:40:41.127Z,21.71
2018-09-24T06:41:41.173Z,21.71
2018-09-24T06:42:41.246Z,21.71
2018-09-24T06:43:41.224Z,21.70
2018-09-24T06:44:41.305Z,21.70
2018-09-24T06:45:41.287Z,21.73
2018-09-24T06:46:41.367Z,21.71
2018-09-24T06:47:41.343Z,21.77
2018-09-24T06:48:41.369Z,21.70
2018-09-24T06:49:41.510Z,21.71
2018-09-24T06:50:41.486Z,21.74
2018-09-24T06:51:41.455Z,21.77
2018-09-24T06:52:41.533Z,21.82
2018-09-24T06:53:41.529Z,21.70
2018-09-24T06:54:41.606Z,21.81
2018-09-24T06:55:41.623Z,21.79
2018-09-24T06:56:41.614Z,21.77
2018-09-24T06:57:41.699Z,21.77
2018-09-24T06:58:41.970Z,21.79
2018-09-24T06:59:41.800Z,21.68
2018-09-24T07:00:41.732Z,21.79
2018-09-24T07:01:41.757Z,21.81
2018-09-24T07:02:41.834Z,21.83
2018-09-24T07:03:41.860Z,21.73
2018-09-24T07:04:42.180Z,21.86
2018-09-24T07:05:41.932Z,21.85
2018-09-24T07:06:41.950Z,21.90
2018-09-24T07:07:41.984Z,21.85
2018-09-24T07:08:41.963Z,21.91
2018-09-24T07:09:42.039Z,21.86
2018-09-24T07:10:42.323Z,21.85
2018-09-24T07:11:42.056Z,21.89
2018-09-24T07:12:42.134Z,21.82
2018-09-24T07:13:42.160Z,21.93
2018-09-24T07:14:42.143Z,21.86
2018-09-24T07:15:42.224Z,21.93
2018-09-24T07:16:42.254Z,21.89
2018-09-24T07:17:42.286Z,21.89
2018-09-24T07:18:42.307Z,21.93
2018-09-24T07:19:42.300Z,21.93
2018-09-24T07:20:42.376Z,21.91
2018-09-24T07:21:42.401Z,21.85
2018-09-24T07:22:42.681Z,21.94
2018-09-24T07:23:42.456Z,21.86
2018-09-24T07:24:42.484Z,21.81
2018-09-24T07:25:42.516Z,21.86
2018-09-24T07:26:42.554Z,21.86
2018-09-24T07:27:42.611Z,21.91
2018-09-24T07:28:42.610Z,21.83
2018-09-24T07:29:42.886Z,21.83
2018-09-24T07:30:42.674Z,21.93
2018-09-24T07:31:42.645Z,21.85
2018-09-24T07:32:42.679Z,21.89
2018-09-24T07:33:42.761Z,21.89
2018-09-24T07:34:42.785Z,21.91
2018-09-24T07:35:42.773Z,21.85
2018-09-24T07:36:43.097Z,22.01
2018-09-24T07:37:42.878Z,21.86
2018-09-24T07:38:42.916Z,21.83
2018-09-24T07:39:42.937Z,21.98
2018-09-24T07:40:42.913Z,21.93
2018-09-24T07:41:43.002Z,21.89
2018-09-24T07:42:42.977Z,21.89
2018-09-24T07:43:43.060Z,21.86
2018-09-24T07:44:43.091Z,21.90
2018-09-24T07:45:43.070Z,21.94
2018-09-24T07:46:43.155Z,21.96
2018-09-24T07:47:43.142Z,21.90
2018-09-24T07:48:43.202Z,21.93
2018-09-24T07:49:43.488Z,21.93
2018-09-24T07:50:43.267Z,21.96
2018-09-24T07:51:43.242Z,22.01
2018-09-24T07:52:43.332Z,21.99
2018-09-24T07:53:43.358Z,21.94
2018-09-24T07:54:43.394Z,22.01
2018-09-24T07:55:43.668Z,22.02
2018-09-24T07:56:43.440Z,22.06
2018-09-24T07:57:43.480Z,22.08
2018-09-24T07:58:43.469Z,21.98
2018-09-24T07:59:43.492Z,22.06
2018-09-24T08:00:43.560Z,22.09
2018-09-24T08:01:43.850Z,22.09
2018-09-24T08:02:43.629Z,22.02
2018-09-24T08:03:43.610Z,22.02
2018-09-24T08:04:43.629Z,21.98
2018-09-24T08:05:43.664Z,22.11
2018-09-24T08:06:43.744Z,22.02
2018-09-24T08:07:44.019Z,22.05
2018-09-24T08:08:43.755Z,21.96
2018-09-24T08:09:43.778Z,22.05
2018-09-24T08:10:43.859Z,22.04
2018-09-24T08:11:43.890Z,22.05
2018-09-24T08:12:43.954Z,22.05
2018-09-24T08:13:43.948Z,22.04
2018-09-24T08:14:43.979Z,22.05
2018-09-24T08:15:44.007Z,22.01
2018-09-24T08:16:44.044Z,22.02
2018-09-24T08:17:44.071Z,22.06
2018-09-24T08:18:44.098Z,22.05
2018-09-24T08:19:44.079Z,22.01
2018-09-24T08:20:44.115Z,22.06
2018-09-24T08:22:44.170Z,22.04
2018-09-24T08:23:44.256Z,22.06
2018-09-24T08:24:44.230Z,22.02
2018-09-24T08:25:44.262Z,22.12
2018-09-24T08:26:44.335Z,22.04
2018-09-24T08:27:44.320Z,22.04
2018-09-24T08:28:44.419Z,22.04
2018-09-24T08:29:44.428Z,22.11
2018-09-24T08:30:44.416Z,22.04
2018-09-24T08:31:44.437Z,22.09
2018-09-24T08:32:44.826Z,22.06
2018-09-24T08:33:44.557Z,22.09
2018-09-24T08:34:44.599Z,22.09
2018-09-24T08:35:44.622Z,22.05
2018-09-24T08:36:44.594Z,22.01
2018-09-24T08:37:44.636Z,22.08
2018-09-24T08:38:44.954Z,22.09
2018-09-24T08:39:44.726Z,22.11
2018-09-24T08:40:44.715Z,22.09
2018-09-24T08:41:44.786Z,22.04
2018-09-24T08:42:44.816Z,22.08
2018-09-24T08:43:44.797Z,22.09
2018-09-24T08:44:44.877Z,22.11
2018-09-24T08:45:44.859Z,22.05
2018-09-24T08:46:44.938Z,22.05
2018-09-24T08:47:44.926Z,22.09
2018-09-24T08:48:44.952Z,22.12
2018-09-24T08:49:45.116Z,22.12
2018-09-24T08:50:45.409Z,22.11
2018-09-24T08:51:45.037Z,22.11
2018-09-24T08:52:45.121Z,22.15
2018-09-24T08:53:45.155Z,22.14
2018-09-24T08:54:45.224Z,22.19
2018-09-24T08:55:45.160Z,22.11
2018-09-24T08:56:45.417Z,22.15
2018-09-24T08:57:45.522Z,22.21
2018-09-24T08:58:45.304Z,22.23
2018-09-24T08:59:45.332Z,22.24
2018-09-24T09:00:45.323Z,22.20
2018-09-24T09:01:45.340Z,22.26
2018-09-24T09:02:45.486Z,22.30
2018-09-24T09:03:45.403Z,22.27
2018-09-24T09:06:45.789Z,22.29
2018-09-24T09:07:45.582Z,22.33
2018-09-24T09:08:45.604Z,22.38
2018-09-24T09:09:45.632Z,22.39
2018-09-24T09:10:45.670Z,22.39
2018-09-24T09:11:45.696Z,22.39
2018-09-24T09:12:45.974Z,22.33
2018-09-24T09:13:45.767Z,22.41
2018-09-24T09:14:45.796Z,22.45
2018-09-24T09:15:45.765Z,22.44
2018-09-24T09:16:45.795Z,22.48
2018-09-24T09:17:45.877Z,22.42
2018-09-24T09:18:45.900Z,22.46
2018-09-24T09:19:46.186Z,22.44
2018-09-24T09:20:45.932Z,22.45
2018-09-24T09:21:45.939Z,22.52
2018-09-24T09:22:46.021Z,22.46
2018-09-24T09:23:46.007Z,22.48
2018-09-24T09:24:46.094Z,22.44
2018-09-24T09:25:46.126Z,22.51
2018-09-24T09:26:46.397Z,22.46
2018-09-24T09:27:46.148Z,22.51
2018-09-24T09:28:46.235Z,22.54
2018-09-24T09:29:46.267Z,22.59
2018-09-24T09:31:46.294Z,22.56
2018-09-24T09:32:46.276Z,22.69
2018-09-24T09:33:51.453Z,22.72
2018-09-24T09:34:46.356Z,22.72
2018-09-24T09:35:46.431Z,22.72
2018-09-24T09:36:46.470Z,22.63
2018-09-24T09:38:46.537Z,22.76
2018-09-24T09:39:46.575Z,22.70
2018-09-24T09:40:46.574Z,22.74
2018-09-24T09:41:46.610Z,22.81
2018-09-24T09:43:46.618Z,22.85
2018-09-24T09:44:46.710Z,22.89
2018-09-24T09:45:46.724Z,22.86
2018-09-24T09:46:46.796Z,22.88
2018-09-24T09:47:46.826Z,22.89
2018-09-24T09:48:46.796Z,22.85
2018-09-24T09:49:46.849Z,22.94
2018-09-24T09:50:46.881Z,22.96
2018-09-24T09:51:47.368Z,22.96
2018-09-24T09:52:46.941Z,22.99
2018-09-24T09:53:46.932Z,22.99
2018-09-24T09:54:47.011Z,22.97
2018-09-24T09:55:47.037Z,23.04
2018-09-24T09:56:47.109Z,23.01
2018-09-24T09:57:47.353Z,23.06
2018-09-24T09:58:47.127Z,23.00
2018-09-24T09:59:47.293Z,23.06
2018-09-24T10:00:47.184Z,22.99
2018-09-24T10:01:47.244Z,23.01
2018-09-24T10:02:47.240Z,23.03
2018-09-24T10:03:47.640Z,23.01
2018-09-24T10:04:47.386Z,23.06
2018-09-24T10:05:47.307Z,23.03
2018-09-24T10:06:47.378Z,23.00
2018-09-24T10:07:47.429Z,23.01
2018-09-24T10:08:47.389Z,23.04
2018-09-24T10:09:47.477Z,22.97
2018-09-24T10:10:47.748Z,23.04
2018-09-24T10:11:47.488Z,22.99
2018-09-24T10:12:47.511Z,22.99
2018-09-24T10:13:47.535Z,23.01
2018-09-24T10:14:47.622Z,23.04
2018-09-24T10:15:47.677Z,23.01
2018-09-24T10:16:47.640Z,23.06
2018-09-24T10:17:47.649Z,22.96
2018-09-24T10:18:47.726Z,23.00
2018-09-24T10:19:47.734Z,23.00
2018-09-24T10:20:47.808Z,23.04
2018-09-24T10:21:47.768Z,23.04
2018-09-24T10:22:47.971Z,23.01
2018-09-24T10:23:48.156Z,23.00
2018-09-24T10:24:47.910Z,23.01
2018-09-24T10:25:47.904Z,23.06
2018-09-24T10:26:47.992Z,23.00
2018-09-24T10:27:48.018Z,22.94
2018-09-24T10:28:47.997Z,23.00
2018-09-24T10:29:48.074Z,23.03
2018-09-24T10:30:48.448Z,23.00
2018-09-24T10:31:48.111Z,23.01
2018-09-24T10:32:48.169Z,23.00
2018-09-24T10:33:48.326Z,23.00
2018-09-24T10:34:48.241Z,22.96
2018-09-24T10:35:48.215Z,22.96
2018-09-24T10:36:48.284Z,22.97
2018-09-24T10:37:48.674Z,22.96
2018-09-24T10:38:48.369Z,23.03
2018-09-24T10:39:48.494Z,22.93
2018-09-24T10:40:48.357Z,23.01
2018-09-24T10:41:48.446Z,22.93
2018-09-24T10:42:48.420Z,23.09
2018-09-24T10:43:48.541Z,23.09
2018-09-24T10:44:48.554Z,22.99
2018-09-24T10:45:48.577Z,23.04
2018-09-24T10:46:48.588Z,23.01
2018-09-24T10:47:48.618Z,23.04
2018-09-24T10:48:48.652Z,23.03
2018-09-24T10:49:48.657Z,23.01
2018-09-24T10:50:48.735Z,23.01
2018-09-24T10:51:48.701Z,23.03
2018-09-24T10:52:48.832Z,23.00
2018-09-24T10:53:48.822Z,23.00
2018-09-24T10:54:48.847Z,23.01
2018-09-24T10:55:48.986Z,23.01
2018-09-24T10:56:48.904Z,22.94
2018-09-24T10:57:48.928Z,23.04
2018-09-24T10:58:48.990Z,23.06
2018-09-24T10:59:49.005Z,23.00
2018-09-24T11:00:48.977Z,23.04
2018-09-24T11:01:49.031Z,23.09
2018-09-24T11:02:49.384Z,23.09
2018-09-24T11:03:49.110Z,23.04
2018-09-24T11:04:49.205Z,23.11
2018-09-24T11:05:49.186Z,23.03
2018-09-24T11:06:49.209Z,23.15
2018-09-24T11:07:49.250Z,23.09
2018-09-24T11:08:49.263Z,23.06
2018-09-24T11:09:49.557Z,23.12
2018-09-24T11:10:49.342Z,23.14
2018-09-24T11:11:49.393Z,23.19
2018-09-24T11:12:49.407Z,23.15
2018-09-24T11:13:49.432Z,23.15
2018-09-24T11:14:49.466Z,23.14
2018-09-24T11:15:49.612Z,23.11
2018-09-24T11:16:50.070Z,23.15
2018-09-24T11:17:49.791Z,23.18
2018-09-24T11:18:49.590Z,23.12
2018-09-24T11:19:49.615Z,23.18
2018-09-24T11:20:49.653Z,23.26
2018-09-24T11:21:49.715Z,23.22
2018-09-24T11:22:49.708Z,23.15
2018-09-24T11:23:49.759Z,23.15
2018-09-24T11:24:49.868Z,23.15
2018-09-24T11:25:49.759Z,23.29
2018-09-24T11:26:49.836Z,23.21
2018-09-24T11:27:49.831Z,23.19
2018-09-24T11:28:49.891Z,23.14
2018-09-24T11:29:50.241Z,23.23
2018-09-24T11:30:49.977Z,23.14
2018-09-24T11:31:49.994Z,23.21
2018-09-24T11:32:50.046Z,23.19
2018-09-24T11:33:50.017Z,23.21
2018-09-24T11:34:50.076Z,23.21
2018-09-24T11:35:50.075Z,23.15
2018-09-24T11:36:50.177Z,23.19
2018-09-24T11:37:50.151Z,23.23
2018-09-24T11:38:50.282Z,23.21
2018-09-24T11:39:50.249Z,23.21
2018-09-24T11:40:50.273Z,23.15
2018-09-24T11:41:50.380Z,23.15
2018-09-24T11:42:50.341Z,23.14
2018-09-24T11:43:50.310Z,23.15
2018-09-24T11:44:50.401Z,23.25
2018-09-24T11:45:50.418Z,23.26
2018-09-24T11:46:50.456Z,23.21
2018-09-24T11:47:50.493Z,23.22
2018-09-24T11:48:50.786Z,23.26
2018-09-24T11:49:50.501Z,23.21
2018-09-24T11:50:50.579Z,23.22
2018-09-24T11:51:50.619Z,23.18
2018-09-24T11:52:50.652Z,23.23
2018-09-24T11:53:50.665Z,23.23
2018-09-24T11:54:50.719Z,23.31
2018-09-24T11:55:50.725Z,23.29
2018-09-24T11:56:50.756Z,23.26
2018-09-24T11:57:50.793Z,23.26
2018-09-24T11:58:50.840Z,23.23
2018-09-24T11:59:50.868Z,23.35
2018-09-24T12:00:51.146Z,23.39
2018-09-24T12:01:50.877Z,23.37
2018-09-24T12:02:50.970Z,23.34
2018-09-24T12:03:50.980Z,23.32
2018-09-24T12:04:51.030Z,23.38
2018-09-24T12:05:51.073Z,23.37
2018-09-24T12:06:51.086Z,23.35
2018-09-24T12:07:51.064Z,23.34
2018-09-24T12:08:51.151Z,23.32
2018-09-24T12:09:51.174Z,23.41
2018-09-24T12:10:51.213Z,23.47
2018-09-24T12:11:51.253Z,23.39
2018-09-24T12:12:51.638Z,23.50
2018-09-24T12:13:51.596Z,23.45
2018-09-24T12:14:51.319Z,23.42
2018-09-24T12:15:51.368Z,23.44
2018-09-24T12:16:51.392Z,23.44
2018-09-24T12:17:51.360Z,23.44
2018-09-24T12:18:51.447Z,23.47
2018-09-24T12:19:51.448Z,23.38
2018-09-24T12:20:51.506Z,23.42
2018-09-24T12:21:51.491Z,23.45
2018-09-24T12:22:51.584Z,23.41
2018-09-24T12:23:51.561Z,23.47
2018-09-24T12:24:51.636Z,23.39
2018-09-24T12:25:51.675Z,23.44
2018-09-24T12:26:51.954Z,23.42
2018-09-24T12:27:51.734Z,23.49
2018-09-24T12:28:51.763Z,23.45
2018-09-24T12:29:51.807Z,23.42
2018-09-24T12:30:51.842Z,23.42
2018-09-24T12:31:51.803Z,23.44
2018-09-24T12:32:51.898Z,23.41
2018-09-24T12:33:52.182Z,23.42
2018-09-24T12:34:51.962Z,23.45
2018-09-24T12:35:51.976Z,23.39
2018-09-24T12:36:52.049Z,23.39
2018-09-24T12:37:52.039Z,23.39
2018-09-24T12:38:52.026Z,23.41
2018-09-24T12:39:52.119Z,23.39
2018-09-24T12:40:52.456Z,23.31
2018-09-24T12:41:52.216Z,23.32
2018-09-24T12:42:52.202Z,23.34
2018-09-24T12:43:52.239Z,23.41
2018-09-24T12:44:52.270Z,23.37
2018-09-24T12:45:52.302Z,23.45
2018-09-24T12:46:52.264Z,23.44
2018-09-24T12:47:52.350Z,23.41
2018-09-24T12:48:52.396Z,23.47
2018-09-24T12:49:52.415Z,23.47
2018-09-24T12:50:52.399Z,23.44
2018-09-24T12:51:52.480Z,23.45
2018-09-24T12:52:52.473Z,23.50
2018-09-24T12:53:52.552Z,23.56
2018-09-24T12:54:52.569Z,23.57
2018-09-24T12:55:52.618Z,23.50
2018-09-24T12:56:52.646Z,23.54
2018-09-24T12:57:52.662Z,23.49
2018-09-24T12:58:52.739Z,23.45
2018-09-24T12:59:52.748Z,23.53
2018-09-24T13:00:52.757Z,23.57
2018-09-24T13:01:52.788Z,23.52
2018-09-24T13:02:52.835Z,23.42
2018-09-24T13:03:52.861Z,23.42
2018-09-24T13:04:52.886Z,23.44
2018-09-24T13:05:53.185Z,23.45
2018-09-24T13:06:53.306Z,23.44
2018-09-24T13:07:52.981Z,23.49
2018-09-24T13:08:53.018Z,23.42
2018-09-24T13:09:53.037Z,23.41